WZZ5975 LRBS-LHBP
Flight info
| Callsign | WZZ5975 |
|---|---|
| Flight time | 1h 5m |
| Altitude | 36000 |
| Route | SOKRU1L SOKRU DCT OXDOC DCT EMPOS DCT EVRIK DCT BUDOP DCT KEZAL KEZAL2T |
| Aircraft | A320/M-SDE1E2E3FGIJ1J4RWXY/LB1 |
Departure
| Time | 2026-05-06 16:24 |
|---|---|
| Airport | Bucharest Băneasa Aurel Vlaicu International Airport (LRBS) |
Arrival
| Time | 2026-05-06 17:29 |
|---|---|
| Airport | Budapest Liszt Ferenc International Airport (LHBP) |
| Time | Latitude | Longitude | Altitude | Speed | Heading |
|---|---|---|---|---|---|
| 2026-05-06 16:13 | 44.49651 | 26.08206 | 306 ft | 0 kts | 160° |
| 2026-05-06 16:18 | 44.49653 | 26.08205 | 306 ft | 2 kts | 160° |
| 2026-05-06 16:18 | 44.49677 | 26.08198 | 306 ft | 4 kts | 189° |
| 2026-05-06 16:18 | 44.49697 | 26.08213 | 305 ft | 4 kts | 248° |
| 2026-05-06 16:18 | 44.49701 | 26.08248 | 306 ft | 4 kts | 275° |
| 2026-05-06 16:19 | 44.49697 | 26.08285 | 306 ft | 4 kts | 282° |
| 2026-05-06 16:19 | 44.49691 | 26.08320 | 308 ft | 2 kts | 279° |
| 2026-05-06 16:19 | 44.49691 | 26.08323 | 308 ft | 0 kts | 279° |
| 2026-05-06 16:21 | 44.49691 | 26.08322 | 308 ft | 0 kts | 279° |
| 2026-05-06 16:21 | 44.49693 | 26.08307 | 306 ft | 3 kts | 280° |
| 2026-05-06 16:21 | 44.49698 | 26.08270 | 306 ft | 5 kts | 280° |
| 2026-05-06 16:21 | 44.49704 | 26.08212 | 306 ft | 7 kts | 278° |
| 2026-05-06 16:22 | 44.49735 | 26.08164 | 306 ft | 8 kts | 355° |
| 2026-05-06 16:22 | 44.49798 | 26.08171 | 307 ft | 10 kts | 1° |
| 2026-05-06 16:22 | 44.49874 | 26.08170 | 307 ft | 12 kts | 16° |
| 2026-05-06 16:22 | 44.49915 | 26.08271 | 308 ft | 13 kts | 75° |
| 2026-05-06 16:23 | 44.49941 | 26.08401 | 309 ft | 14 kts | 74° |
| 2026-05-06 16:23 | 44.49948 | 26.08437 | 309 ft | 2 kts | 74° |
| 2026-05-06 16:23 | 44.49992 | 26.08652 | 307 ft | 56 kts | 74° |
| 2026-05-06 16:23 | 44.50161 | 26.09467 | 302 ft | 115 kts | 73° |
| 2026-05-06 16:24 | 44.50429 | 26.10749 | 314 ft | 157 kts | 75° |
| 2026-05-06 16:24 | 44.50739 | 26.12222 | 816 ft | 160 kts | 75° |
| 2026-05-06 16:24 | 44.51058 | 26.13760 | 1393 ft | 167 kts | 76° |
| 2026-05-06 16:24 | 44.51367 | 26.15387 | 1763 ft | 181 kts | 84° |
| 2026-05-06 16:25 | 44.51517 | 26.17220 | 2113 ft | 197 kts | 88° |
| 2026-05-06 16:25 | 44.51813 | 26.19184 | 2382 ft | 221 kts | 67° |
| 2026-05-06 16:25 | 44.52948 | 26.20825 | 2635 ft | 255 kts | 27° |
| 2026-05-06 16:25 | 44.54749 | 26.21211 | 3180 ft | 274 kts | 350° |
| 2026-05-06 16:26 | 44.56443 | 26.20072 | 3967 ft | 281 kts | 317° |
| 2026-05-06 16:26 | 44.57682 | 26.17979 | 4974 ft | 276 kts | 303° |
| 2026-05-06 16:26 | 44.58648 | 26.15666 | 6034 ft | 274 kts | 299° |
| 2026-05-06 16:26 | 44.59562 | 26.13310 | 6918 ft | 275 kts | 301° |
| 2026-05-06 16:27 | 44.60535 | 26.10983 | 7828 ft | 275 kts | 302° |
| 2026-05-06 16:27 | 44.61559 | 26.08700 | 8671 ft | 278 kts | 304° |
| 2026-05-06 16:27 | 44.62623 | 26.06450 | 9482 ft | 282 kts | 305° |
| 2026-05-06 16:27 | 44.63737 | 26.04171 | 10239 ft | 286 kts | 306° |
| 2026-05-06 16:28 | 44.64926 | 26.01798 | 10493 ft | 308 kts | 306° |
| 2026-05-06 16:28 | 44.66205 | 25.99273 | 10874 ft | 323 kts | 307° |
| 2026-05-06 16:28 | 44.67522 | 25.96676 | 11503 ft | 329 kts | 306° |
| 2026-05-06 16:28 | 44.68855 | 25.94038 | 12180 ft | 333 kts | 306° |
| 2026-05-06 16:29 | 44.70202 | 25.91367 | 12858 ft | 337 kts | 306° |
| 2026-05-06 16:29 | 44.71564 | 25.88661 | 13529 ft | 341 kts | 306° |
| 2026-05-06 16:29 | 44.72940 | 25.85928 | 14140 ft | 345 kts | 306° |
| 2026-05-06 16:29 | 44.74334 | 25.83160 | 14713 ft | 348 kts | 306° |
| 2026-05-06 16:30 | 44.75740 | 25.80366 | 15276 ft | 352 kts | 306° |
| 2026-05-06 16:30 | 44.76678 | 25.78498 | 15656 ft | 354 kts | 306° |
| 2026-05-06 16:30 | 44.78589 | 25.74685 | 16434 ft | 358 kts | 306° |
| 2026-05-06 16:30 | 44.80008 | 25.71845 | 17046 ft | 360 kts | 306° |
| 2026-05-06 16:31 | 44.81455 | 25.68948 | 17637 ft | 363 kts | 306° |
| 2026-05-06 16:31 | 44.82915 | 25.66025 | 18207 ft | 367 kts | 306° |
| 2026-05-06 16:31 | 44.84389 | 25.63073 | 18744 ft | 370 kts | 306° |
| 2026-05-06 16:31 | 44.85879 | 25.60086 | 19272 ft | 372 kts | 306° |
| 2026-05-06 16:32 | 44.87370 | 25.57094 | 19830 ft | 374 kts | 306° |
| 2026-05-06 16:32 | 44.88872 | 25.54080 | 20356 ft | 377 kts | 305° |
| 2026-05-06 16:32 | 44.90376 | 25.51050 | 20893 ft | 378 kts | 306° |
| 2026-05-06 16:32 | 44.91875 | 25.48027 | 21386 ft | 381 kts | 306° |
| 2026-05-06 16:33 | 44.93398 | 25.44953 | 21868 ft | 383 kts | 306° |
| 2026-05-06 16:33 | 44.94929 | 25.41861 | 22363 ft | 385 kts | 306° |
| 2026-05-06 16:33 | 44.96469 | 25.38744 | 22860 ft | 387 kts | 306° |
| 2026-05-06 16:34 | 44.99400 | 25.32317 | 23804 ft | 392 kts | 296° |
| 2026-05-06 16:34 | 45.00412 | 25.28717 | 24227 ft | 395 kts | 291° |
| 2026-05-06 16:34 | 45.01354 | 25.25075 | 24633 ft | 396 kts | 291° |
| 2026-05-06 16:34 | 45.02311 | 25.21407 | 25052 ft | 397 kts | 293° |
| 2026-05-06 16:35 | 45.03533 | 25.17910 | 25477 ft | 397 kts | 303° |
| 2026-05-06 16:35 | 45.05114 | 25.14767 | 25885 ft | 397 kts | 308° |
| 2026-05-06 16:35 | 45.06796 | 25.11641 | 26308 ft | 398 kts | 308° |
| 2026-05-06 16:35 | 45.08476 | 25.08513 | 26729 ft | 399 kts | 308° |
| 2026-05-06 16:36 | 45.10157 | 25.05372 | 27129 ft | 400 kts | 308° |
| 2026-05-06 16:36 | 45.11841 | 25.02215 | 27529 ft | 402 kts | 308° |
| 2026-05-06 16:36 | 45.13525 | 24.99050 | 27924 ft | 403 kts | 308° |
| 2026-05-06 16:36 | 45.15214 | 24.95866 | 28314 ft | 404 kts | 307° |
| 2026-05-06 16:37 | 45.16911 | 24.92671 | 28720 ft | 406 kts | 307° |
| 2026-05-06 16:37 | 45.18609 | 24.89470 | 29133 ft | 407 kts | 307° |
| 2026-05-06 16:37 | 45.20291 | 24.86292 | 29533 ft | 408 kts | 307° |
| 2026-05-06 16:37 | 45.21993 | 24.83067 | 29930 ft | 410 kts | 307° |
| 2026-05-06 16:38 | 45.23703 | 24.79824 | 30281 ft | 411 kts | 307° |
| 2026-05-06 16:38 | 45.25420 | 24.76571 | 30598 ft | 413 kts | 307° |
| 2026-05-06 16:38 | 45.27146 | 24.73305 | 30897 ft | 415 kts | 307° |
| 2026-05-06 16:38 | 45.28862 | 24.70022 | 31305 ft | 414 kts | 306° |
| 2026-05-06 16:39 | 45.30506 | 24.66671 | 31743 ft | 412 kts | 304° |
| 2026-05-06 16:39 | 45.32083 | 24.63272 | 32176 ft | 411 kts | 303° |
| 2026-05-06 16:39 | 45.33622 | 24.59855 | 32619 ft | 410 kts | 302° |
| 2026-05-06 16:39 | 45.35145 | 24.56444 | 33036 ft | 408 kts | 302° |
| 2026-05-06 16:40 | 45.36671 | 24.53040 | 33447 ft | 408 kts | 302° |
| 2026-05-06 16:40 | 45.38188 | 24.49687 | 33879 ft | 407 kts | 303° |
| 2026-05-06 16:40 | 45.39724 | 24.46320 | 34256 ft | 406 kts | 303° |
| 2026-05-06 16:40 | 45.41264 | 24.42959 | 34612 ft | 405 kts | 303° |
| 2026-05-06 16:41 | 45.42800 | 24.39606 | 34971 ft | 404 kts | 303° |
| 2026-05-06 16:41 | 45.44333 | 24.36256 | 35303 ft | 403 kts | 303° |
| 2026-05-06 16:41 | 45.45869 | 24.32902 | 35613 ft | 403 kts | 303° |
| 2026-05-06 16:41 | 45.47400 | 24.29556 | 35904 ft | 403 kts | 303° |
| 2026-05-06 16:42 | 45.48930 | 24.26202 | 35994 ft | 403 kts | 303° |
| 2026-05-06 16:42 | 45.51985 | 24.19492 | 35988 ft | 403 kts | 303° |
| 2026-05-06 16:43 | 45.55031 | 24.12773 | 35990 ft | 403 kts | 303° |
| 2026-05-06 16:43 | 45.58048 | 24.06099 | 35989 ft | 402 kts | 302° |
| 2026-05-06 16:44 | 45.61080 | 23.99372 | 35990 ft | 402 kts | 302° |
| 2026-05-06 16:44 | 45.64107 | 23.92646 | 35997 ft | 402 kts | 302° |
| 2026-05-06 16:45 | 45.67111 | 23.85954 | 36004 ft | 402 kts | 302° |
| 2026-05-06 16:45 | 45.70129 | 23.79220 | 35998 ft | 402 kts | 302° |
| 2026-05-06 16:46 | 45.73151 | 23.72477 | 35978 ft | 402 kts | 302° |
| 2026-05-06 16:46 | 45.76164 | 23.65735 | 35981 ft | 402 kts | 302° |
| 2026-05-06 16:47 | 45.79166 | 23.58964 | 35985 ft | 402 kts | 302° |
| 2026-05-06 16:47 | 45.82164 | 23.52191 | 35981 ft | 402 kts | 302° |
| 2026-05-06 16:48 | 45.85149 | 23.45449 | 35973 ft | 402 kts | 302° |
| 2026-05-06 16:48 | 45.88144 | 23.38672 | 35978 ft | 402 kts | 302° |
| 2026-05-06 16:49 | 45.91137 | 23.31890 | 35980 ft | 401 kts | 302° |
| 2026-05-06 16:49 | 45.94121 | 23.25110 | 35980 ft | 401 kts | 301° |
| 2026-05-06 16:50 | 45.97094 | 23.18310 | 35975 ft | 402 kts | 301° |
| 2026-05-06 16:50 | 46.00063 | 23.11515 | 35977 ft | 401 kts | 301° |
| 2026-05-06 16:51 | 46.03014 | 23.04764 | 35987 ft | 400 kts | 301° |
| 2026-05-06 16:51 | 46.05979 | 22.97968 | 35986 ft | 400 kts | 301° |
| 2026-05-06 16:52 | 46.08931 | 22.91166 | 35989 ft | 400 kts | 301° |
| 2026-05-06 16:52 | 46.11880 | 22.84353 | 35993 ft | 400 kts | 301° |
| 2026-05-06 16:53 | 46.14807 | 22.77575 | 35990 ft | 400 kts | 300° |
| 2026-05-06 16:53 | 46.17751 | 22.70751 | 35995 ft | 400 kts | 300° |
| 2026-05-06 16:54 | 46.20682 | 22.63924 | 35993 ft | 400 kts | 300° |
| 2026-05-06 16:54 | 46.23611 | 22.57095 | 35985 ft | 400 kts | 300° |
| 2026-05-06 16:55 | 46.26516 | 22.50298 | 35989 ft | 399 kts | 300° |
| 2026-05-06 16:55 | 46.29431 | 22.43471 | 35984 ft | 399 kts | 300° |
| 2026-05-06 16:56 | 46.32336 | 22.36653 | 35981 ft | 398 kts | 300° |
| 2026-05-06 16:56 | 46.34749 | 22.30984 | 35980 ft | 397 kts | 300° |
| 2026-05-06 16:57 | 46.38131 | 22.23016 | 35978 ft | 397 kts | 300° |
| 2026-05-06 16:57 | 46.40533 | 22.17336 | 35972 ft | 397 kts | 300° |
| 2026-05-06 16:58 | 46.43388 | 22.10545 | 35968 ft | 396 kts | 299° |
| 2026-05-06 16:58 | 46.46262 | 22.03722 | 35959 ft | 396 kts | 299° |
| 2026-05-06 16:59 | 46.49129 | 21.96896 | 35960 ft | 396 kts | 299° |
| 2026-05-06 16:59 | 46.51986 | 21.90058 | 35907 ft | 395 kts | 299° |
| 2026-05-06 16:59 | 46.53394 | 21.86688 | 35447 ft | 394 kts | 299° |
| 2026-05-06 17:00 | 46.54810 | 21.83300 | 35007 ft | 391 kts | 299° |
| 2026-05-06 17:00 | 46.56217 | 21.79928 | 34585 ft | 388 kts | 299° |
| 2026-05-06 17:00 | 46.57609 | 21.76587 | 34164 ft | 385 kts | 300° |
| 2026-05-06 17:00 | 46.58992 | 21.73265 | 33720 ft | 382 kts | 300° |
| 2026-05-06 17:01 | 46.60361 | 21.69970 | 33215 ft | 380 kts | 300° |
| 2026-05-06 17:01 | 46.61727 | 21.66679 | 32711 ft | 378 kts | 299° |
| 2026-05-06 17:01 | 46.63082 | 21.63414 | 32232 ft | 376 kts | 299° |
| 2026-05-06 17:01 | 46.64425 | 21.60174 | 31942 ft | 374 kts | 299° |
| 2026-05-06 17:02 | 46.65768 | 21.56921 | 31933 ft | 375 kts | 299° |
| 2026-05-06 17:02 | 46.68441 | 21.50435 | 31922 ft | 375 kts | 299° |
| 2026-05-06 17:03 | 46.71031 | 21.43849 | 31924 ft | 374 kts | 297° |
| 2026-05-06 17:03 | 46.73505 | 21.37175 | 31923 ft | 374 kts | 296° |
| 2026-05-06 17:04 | 46.75971 | 21.30499 | 31913 ft | 374 kts | 297° |
| 2026-05-06 17:04 | 46.78457 | 21.23818 | 31911 ft | 374 kts | 297° |
| 2026-05-06 17:05 | 46.80950 | 21.17135 | 31919 ft | 375 kts | 297° |
| 2026-05-06 17:05 | 46.83446 | 21.10439 | 31912 ft | 375 kts | 297° |
| 2026-05-06 17:06 | 46.85918 | 21.03779 | 31899 ft | 375 kts | 296° |
| 2026-05-06 17:06 | 46.88407 | 20.97050 | 31902 ft | 375 kts | 296° |
| 2026-05-06 17:07 | 46.90892 | 20.90329 | 31905 ft | 375 kts | 296° |
| 2026-05-06 17:07 | 46.93375 | 20.83588 | 31819 ft | 380 kts | 296° |
| 2026-05-06 17:07 | 46.94629 | 20.80176 | 31560 ft | 379 kts | 296° |
| 2026-05-06 17:08 | 46.95859 | 20.76824 | 31311 ft | 378 kts | 296° |
| 2026-05-06 17:08 | 46.97095 | 20.73455 | 30991 ft | 373 kts | 296° |
| 2026-05-06 17:08 | 46.98320 | 20.70113 | 30575 ft | 371 kts | 296° |
| 2026-05-06 17:08 | 46.99537 | 20.66789 | 30147 ft | 369 kts | 296° |
| 2026-05-06 17:09 | 47.00748 | 20.63476 | 29695 ft | 367 kts | 296° |
| 2026-05-06 17:09 | 47.01945 | 20.60188 | 29162 ft | 366 kts | 295° |
| 2026-05-06 17:09 | 47.03123 | 20.56807 | 28088 ft | 379 kts | 294° |
| 2026-05-06 17:09 | 47.04301 | 20.53277 | 27051 ft | 390 kts | 294° |
| 2026-05-06 17:10 | 47.05472 | 20.49698 | 26596 ft | 386 kts | 294° |
| 2026-05-06 17:10 | 47.06625 | 20.46164 | 26138 ft | 383 kts | 294° |
| 2026-05-06 17:10 | 47.07758 | 20.42693 | 25603 ft | 382 kts | 294° |
| 2026-05-06 17:10 | 47.08907 | 20.39188 | 25182 ft | 379 kts | 294° |
| 2026-05-06 17:11 | 47.10054 | 20.35710 | 24721 ft | 377 kts | 294° |
| 2026-05-06 17:11 | 47.11197 | 20.32255 | 24306 ft | 375 kts | 294° |
| 2026-05-06 17:11 | 47.12335 | 20.28814 | 23872 ft | 373 kts | 294° |
| 2026-05-06 17:11 | 47.13467 | 20.25386 | 23441 ft | 371 kts | 294° |
| 2026-05-06 17:12 | 47.14589 | 20.21984 | 22972 ft | 369 kts | 294° |
| 2026-05-06 17:12 | 47.15699 | 20.18611 | 22539 ft | 365 kts | 294° |
| 2026-05-06 17:12 | 47.16798 | 20.15270 | 22104 ft | 361 kts | 293° |
| 2026-05-06 17:12 | 47.17872 | 20.11999 | 21694 ft | 357 kts | 293° |
| 2026-05-06 17:13 | 47.18945 | 20.08725 | 21272 ft | 354 kts | 293° |
| 2026-05-06 17:13 | 47.20008 | 20.05476 | 20859 ft | 351 kts | 293° |
| 2026-05-06 17:13 | 47.21058 | 20.02259 | 20451 ft | 348 kts | 292° |
| 2026-05-06 17:13 | 47.22099 | 19.99065 | 20038 ft | 345 kts | 292° |
| 2026-05-06 17:14 | 47.23132 | 19.95889 | 19615 ft | 343 kts | 292° |
| 2026-05-06 17:14 | 47.24158 | 19.92730 | 19211 ft | 341 kts | 292° |
| 2026-05-06 17:14 | 47.25176 | 19.89588 | 18814 ft | 339 kts | 292° |
| 2026-05-06 17:14 | 47.26187 | 19.86468 | 18411 ft | 337 kts | 292° |
| 2026-05-06 17:15 | 47.27195 | 19.83354 | 17982 ft | 336 kts | 292° |
| 2026-05-06 17:15 | 47.28198 | 19.80258 | 17561 ft | 334 kts | 292° |
| 2026-05-06 17:15 | 47.29190 | 19.77186 | 17162 ft | 331 kts | 292° |
| 2026-05-06 17:15 | 47.30163 | 19.74175 | 16784 ft | 328 kts | 292° |
| 2026-05-06 17:16 | 47.31141 | 19.71145 | 16385 ft | 326 kts | 292° |
| 2026-05-06 17:16 | 47.32111 | 19.68132 | 16001 ft | 324 kts | 292° |
| 2026-05-06 17:16 | 47.33073 | 19.65140 | 15617 ft | 322 kts | 292° |
| 2026-05-06 17:16 | 47.34030 | 19.62160 | 15234 ft | 321 kts | 292° |
| 2026-05-06 17:17 | 47.35101 | 19.59272 | 14841 ft | 322 kts | 303° |
| 2026-05-06 17:17 | 47.36564 | 19.56764 | 14442 ft | 323 kts | 310° |
| 2026-05-06 17:17 | 47.38093 | 19.54332 | 14042 ft | 323 kts | 310° |
| 2026-05-06 17:17 | 47.39621 | 19.51892 | 13638 ft | 323 kts | 310° |
| 2026-05-06 17:18 | 47.41138 | 19.49461 | 13202 ft | 322 kts | 309° |
| 2026-05-06 17:18 | 47.42651 | 19.47028 | 12808 ft | 320 kts | 309° |
| 2026-05-06 17:18 | 47.44151 | 19.44609 | 12409 ft | 318 kts | 309° |
| 2026-05-06 17:18 | 47.45625 | 19.42231 | 12016 ft | 317 kts | 309° |
| 2026-05-06 17:19 | 47.47109 | 19.39837 | 11611 ft | 315 kts | 309° |
| 2026-05-06 17:19 | 47.48585 | 19.37451 | 11228 ft | 314 kts | 309° |
| 2026-05-06 17:19 | 47.50059 | 19.35068 | 10831 ft | 313 kts | 309° |
| 2026-05-06 17:19 | 47.51530 | 19.32695 | 10453 ft | 311 kts | 309° |
| 2026-05-06 17:20 | 47.52974 | 19.30366 | 10316 ft | 302 kts | 308° |
| 2026-05-06 17:20 | 47.54371 | 19.28115 | 10187 ft | 292 kts | 308° |
| 2026-05-06 17:20 | 47.55730 | 19.25917 | 10005 ft | 286 kts | 308° |
| 2026-05-06 17:20 | 47.57053 | 19.23772 | 9882 ft | 277 kts | 308° |
| 2026-05-06 17:21 | 47.58338 | 19.21690 | 9604 ft | 274 kts | 308° |
| 2026-05-06 17:21 | 47.59639 | 19.19570 | 8981 ft | 285 kts | 308° |
| 2026-05-06 17:21 | 47.60951 | 19.17436 | 8860 ft | 273 kts | 308° |
| 2026-05-06 17:21 | 47.62190 | 19.15427 | 8728 ft | 255 kts | 307° |
| 2026-05-06 17:22 | 47.63348 | 19.13552 | 8601 ft | 238 kts | 307° |
| 2026-05-06 17:22 | 47.64434 | 19.11790 | 8393 ft | 226 kts | 307° |
| 2026-05-06 17:22 | 47.65477 | 19.10072 | 8029 ft | 222 kts | 302° |
| 2026-05-06 17:22 | 47.66136 | 19.08098 | 7639 ft | 210 kts | 277° |
| 2026-05-06 17:23 | 47.66158 | 19.05985 | 7248 ft | 203 kts | 253° |
| 2026-05-06 17:23 | 47.65608 | 19.04097 | 6865 ft | 198 kts | 232° |
| 2026-05-06 17:23 | 47.64646 | 19.02648 | 6472 ft | 197 kts | 222° |
| 2026-05-06 17:23 | 47.63632 | 19.01291 | 6074 ft | 196 kts | 222° |
| 2026-05-06 17:24 | 47.62636 | 18.99950 | 5687 ft | 195 kts | 221° |
| 2026-05-06 17:24 | 47.61619 | 18.98616 | 5314 ft | 195 kts | 215° |
| 2026-05-06 17:24 | 47.60351 | 18.98040 | 4939 ft | 196 kts | 177° |
| 2026-05-06 17:24 | 47.59115 | 18.98921 | 4571 ft | 207 kts | 141° |
| 2026-05-06 17:25 | 47.58130 | 19.00491 | 4261 ft | 207 kts | 138° |
| 2026-05-06 17:25 | 47.57183 | 19.02051 | 3967 ft | 201 kts | 138° |
| 2026-05-06 17:25 | 47.56260 | 19.03563 | 3714 ft | 194 kts | 138° |
| 2026-05-06 17:25 | 47.55359 | 19.05032 | 3462 ft | 193 kts | 139° |
| 2026-05-06 17:26 | 47.54456 | 19.06501 | 3213 ft | 193 kts | 139° |
| 2026-05-06 17:26 | 47.53556 | 19.07967 | 2996 ft | 192 kts | 139° |
| 2026-05-06 17:26 | 47.52684 | 19.09389 | 2729 ft | 183 kts | 139° |
| 2026-05-06 17:26 | 47.51845 | 19.10757 | 2500 ft | 172 kts | 139° |
| 2026-05-06 17:27 | 47.51085 | 19.11997 | 2254 ft | 154 kts | 139° |
| 2026-05-06 17:27 | 47.50381 | 19.13140 | 2055 ft | 147 kts | 139° |
| 2026-05-06 17:27 | 47.49697 | 19.14247 | 1868 ft | 144 kts | 140° |
| 2026-05-06 17:27 | 47.49032 | 19.15325 | 1684 ft | 143 kts | 140° |
| 2026-05-06 17:28 | 47.48358 | 19.16418 | 1482 ft | 145 kts | 140° |
| 2026-05-06 17:28 | 47.47681 | 19.17519 | 1311 ft | 144 kts | 139° |
| 2026-05-06 17:28 | 47.47008 | 19.18608 | 1109 ft | 144 kts | 138° |
| 2026-05-06 17:28 | 47.46332 | 19.19709 | 927 ft | 145 kts | 137° |
| 2026-05-06 17:29 | 47.45648 | 19.20818 | 729 ft | 146 kts | 138° |
| 2026-05-06 17:29 | 47.44972 | 19.21921 | 558 ft | 144 kts | 137° |
| 2026-05-06 17:29 | 47.44318 | 19.22966 | 490 ft | 125 kts | 131° |
| 2026-05-06 17:29 | 47.44436 | 19.22784 | 483 ft | 0 kts | 135° |